createdAt,value
2023-03-29T00:00:43.741Z,4.43
2023-03-29T00:03:47.387Z,4.28
2023-03-29T00:06:50.573Z,6.43
2023-03-29T00:09:53.122Z,5.70
2023-03-29T00:12:55.575Z,6.88
2023-03-29T00:15:57.970Z,5.33
2023-03-29T00:19:00.678Z,4.22
2023-03-29T00:22:06.258Z,3.03
2023-03-29T00:25:11.840Z,2.83
2023-03-29T00:28:14.858Z,3.63
2023-03-29T00:31:18.418Z,4.50
2023-03-29T00:34:22.337Z,2.70
2023-03-29T00:37:30.007Z,3.83
2023-03-29T00:40:34.342Z,2.10
2023-03-29T00:43:57.326Z,3.70
2023-03-29T00:46:59.727Z,3.50
2023-03-29T00:50:07.917Z,4.18
2023-03-29T00:53:33.851Z,3.10
2023-03-29T00:56:40.539Z,2.63
2023-03-29T00:59:45.142Z,3.70
2023-03-29T01:02:54.485Z,3.42
2023-03-29T01:06:04.984Z,3.72
2023-03-29T01:09:12.675Z,6.03
2023-03-29T01:12:20.881Z,4.10
2023-03-29T01:15:26.605Z,2.95
2023-03-29T01:18:31.472Z,3.33
2023-03-29T01:21:44.627Z,4.45
2023-03-29T01:25:07.195Z,3.78
2023-03-29T01:28:17.460Z,3.73
2023-03-29T01:31:44.227Z,3.88
2023-03-29T01:34:58.597Z,3.53
2023-03-29T01:38:13.395Z,3.22
2023-03-29T01:41:16.582Z,3.45
2023-03-29T01:44:23.418Z,2.47
2023-03-29T01:47:34.856Z,3.10
2023-03-29T01:50:46.698Z,3.87
2023-03-29T01:53:54.988Z,1.90
2023-03-29T01:56:59.150Z,3.10
2023-03-29T02:00:08.256Z,1.93
2023-03-29T02:03:17.486Z,4.82
2023-03-29T02:06:23.897Z,1.80
2023-03-29T02:09:29.225Z,2.35
2023-03-29T02:12:32.099Z,2.78
2023-03-29T02:15:36.652Z,4.05
2023-03-29T02:18:41.302Z,4.47
2023-03-29T02:21:51.833Z,4.67
2023-03-29T02:24:59.200Z,6.00
2023-03-29T02:28:02.010Z,4.70
2023-03-29T02:31:15.762Z,4.60
2023-03-29T02:34:28.197Z,7.63
2023-03-29T02:37:34.486Z,5.28
2023-03-29T02:40:39.401Z,5.43
2023-03-29T02:43:43.118Z,6.40
2023-03-29T02:46:49.368Z,8.52
2023-03-29T02:49:52.377Z,7.72
2023-03-29T02:53:04.738Z,9.60
2023-03-29T02:56:09.190Z,7.00
2023-03-29T02:59:12.594Z,6.90
2023-03-29T03:02:18.023Z,6.23
2023-03-29T03:05:29.636Z,11.00
2023-03-29T03:08:32.302Z,6.25
2023-03-29T03:11:34.754Z,7.82
2023-03-29T03:14:37.213Z,9.30
2023-03-29T03:17:40.230Z,7.53
2023-03-29T03:20:47.041Z,33.42
2023-03-29T03:23:49.798Z,17.20
2023-03-29T03:26:52.222Z,15.52
2023-03-29T03:29:54.964Z,34.35
2023-03-29T03:33:15.946Z,38.57
2023-03-29T03:36:18.394Z,48.85
2023-03-29T03:39:21.601Z,52.45
2023-03-29T03:42:24.327Z,31.15
2023-03-29T03:45:27.110Z,20.90
2023-03-29T03:48:44.571Z,10.07
2023-03-29T03:51:54.142Z,8.82
2023-03-29T03:54:56.632Z,17.97
2023-03-29T03:58:18.140Z,30.88
2023-03-29T04:01:20.601Z,15.57
2023-03-29T04:04:34.889Z,10.33
2023-03-29T04:07:44.662Z,9.95
2023-03-29T04:11:07.794Z,10.27
2023-03-29T04:14:13.065Z,17.33
2023-03-29T04:17:39.902Z,16.88
2023-03-29T04:21:02.935Z,12.63
2023-03-29T04:24:08.076Z,11.90
2023-03-29T04:27:13.292Z,14.80
2023-03-29T04:30:16.964Z,58.05
2023-03-29T04:33:42.667Z,51.17
2023-03-29T04:36:46.483Z,27.73
2023-03-29T04:39:55.062Z,34.47
2023-03-29T04:43:00.097Z,26.60
2023-03-29T04:46:03.486Z,24.35
2023-03-29T04:49:29.090Z,43.13
2023-03-29T04:52:33.324Z,27.92
2023-03-29T04:55:37.942Z,16.90
2023-03-29T04:58:44.353Z,16.23
2023-03-29T05:01:47.502Z,16.30
2023-03-29T05:04:50.573Z,16.05
2023-03-29T05:07:54.941Z,32.17
2023-03-29T05:11:02.750Z,20.20
2023-03-29T05:14:07.409Z,23.15
2023-03-29T05:17:10.218Z,44.28
2023-03-29T05:20:13.356Z,31.27
2023-03-29T05:23:19.248Z,27.88
2023-03-29T05:26:53.068Z,23.80
2023-03-29T05:29:56.121Z,10.23
2023-03-29T05:33:11.534Z,11.57
2023-03-29T05:36:16.443Z,12.00
2023-03-29T05:39:23.409Z,10.17
2023-03-29T05:42:26.274Z,21.80
2023-03-29T05:45:42.472Z,40.00
2023-03-29T05:48:45.513Z,25.45
2023-03-29T05:51:48.184Z,30.30
2023-03-29T05:54:50.793Z,36.28
2023-03-29T05:57:53.448Z,15.48
2023-03-29T06:01:04.747Z,10.07
2023-03-29T06:04:31.912Z,9.65
2023-03-29T06:08:07.485Z,10.20
2023-03-29T06:11:30.581Z,20.00
2023-03-29T06:14:41.917Z,24.85
2023-03-29T06:18:06.597Z,11.88
2023-03-29T06:21:11.054Z,7.78
2023-03-29T06:24:14.131Z,10.30
2023-03-29T06:27:21.918Z,7.78
2023-03-29T06:30:25.004Z,7.32
2023-03-29T06:33:30.906Z,8.83
2023-03-29T06:36:50.958Z,8.23
2023-03-29T06:39:56.988Z,9.55
2023-03-29T06:43:10.229Z,6.57
2023-03-29T06:46:29.299Z,8.43
2023-03-29T06:49:35.679Z,7.88
2023-03-29T06:52:47.058Z,8.57
2023-03-29T06:55:51.919Z,7.18
2023-03-29T06:59:18.131Z,8.15
2023-03-29T07:02:43.739Z,9.80
2023-03-29T07:05:48.030Z,9.53
2023-03-29T07:08:53.595Z,9.80
2023-03-29T07:12:10.197Z,7.95
2023-03-29T07:15:16.168Z,8.23
2023-03-29T07:18:47.728Z,7.75
2023-03-29T07:22:00.275Z,11.85
2023-03-29T07:25:16.431Z,7.05
2023-03-29T07:28:21.354Z,5.65
2023-03-29T07:31:23.924Z,5.63
2023-03-29T07:34:33.073Z,9.40
2023-03-29T07:37:37.510Z,5.90
2023-03-29T07:40:42.139Z,4.55
2023-03-29T07:44:09.080Z,4.85
2023-03-29T07:47:12.695Z,3.27
2023-03-29T07:50:17.015Z,16.10
2023-03-29T07:53:19.674Z,3.80
2023-03-29T07:56:22.377Z,2.90
2023-03-29T07:59:37.946Z,3.90
2023-03-29T08:02:52.566Z,2.38
2023-03-29T08:05:55.213Z,2.30
2023-03-29T08:08:57.631Z,2.57
2023-03-29T08:12:00.305Z,2.90
2023-03-29T08:15:09.664Z,3.45
2023-03-29T08:18:15.563Z,3.63
2023-03-29T08:21:18.049Z,3.65
2023-03-29T08:24:24.386Z,3.60
2023-03-29T08:27:32.317Z,4.10
2023-03-29T08:30:35.326Z,4.38
2023-03-29T08:33:39.449Z,4.15
2023-03-29T08:37:04.193Z,6.07
2023-03-29T08:40:21.604Z,3.27
2023-03-29T08:43:45.011Z,3.92
2023-03-29T08:46:54.901Z,5.13
2023-03-29T08:50:10.819Z,4.43
2023-03-29T08:53:35.545Z,3.03
2023-03-29T08:56:47.861Z,3.78
2023-03-29T09:00:01.813Z,3.60
2023-03-29T09:03:16.075Z,4.63
2023-03-29T09:06:20.807Z,3.38
2023-03-29T09:09:32.793Z,6.80
2023-03-29T09:13:03.877Z,11.70
2023-03-29T09:16:25.239Z,7.25
2023-03-29T09:20:02.277Z,5.53
2023-03-29T09:23:19.950Z,3.50
2023-03-29T09:26:52.848Z,5.78
2023-03-29T09:30:29.012Z,4.40
2023-03-29T09:33:47.656Z,3.03
2023-03-29T09:37:07.225Z,5.47
2023-03-29T09:40:18.058Z,5.72
2023-03-29T09:43:42.979Z,3.08
2023-03-29T09:46:58.979Z,3.47
2023-03-29T09:50:23.055Z,3.08
2023-03-29T09:53:32.844Z,98.95
2023-03-29T09:56:50.363Z,4.20
2023-03-29T09:59:56.406Z,3.90
2023-03-29T10:03:00.152Z,6.95
2023-03-29T10:06:14.607Z,5.28
2023-03-29T10:09:24.378Z,5.95
2023-03-29T10:12:33.466Z,4.13
2023-03-29T10:15:37.086Z,4.00
2023-03-29T10:18:41.753Z,3.57
2023-03-29T10:21:45.039Z,11.30
2023-03-29T10:24:49.918Z,14.40
2023-03-29T10:27:55.523Z,8.60
2023-03-29T10:31:00.952Z,3.65
2023-03-29T10:34:05.694Z,4.82
2023-03-29T10:37:10.012Z,3.97
2023-03-29T10:40:33.380Z,2.53
2023-03-29T10:43:44.174Z,3.60
2023-03-29T10:46:46.647Z,2.67
2023-03-29T10:49:58.837Z,3.53
2023-03-29T10:53:03.265Z,2.55
2023-03-29T10:56:07.647Z,3.45
2023-03-29T10:59:22.883Z,7.50
2023-03-29T11:02:53.608Z,7.85
2023-03-29T11:06:02.202Z,3.50
2023-03-29T11:09:52.777Z,4.97
2023-03-29T11:13:13.851Z,4.63
2023-03-29T11:16:42.136Z,7.30
2023-03-29T11:20:19.632Z,7.75
2023-03-29T11:23:50.869Z,4.83
2023-03-29T11:27:02.013Z,7.13
2023-03-29T11:30:21.808Z,3.88
2023-03-29T11:33:36.227Z,18.47
2023-03-29T11:36:50.576Z,2.90
2023-03-29T11:40:22.774Z,5.43
2023-03-29T11:43:34.185Z,6.45
2023-03-29T11:46:39.125Z,1.77
2023-03-29T11:49:49.301Z,5.25
2023-03-29T11:52:57.507Z,4.00
2023-03-29T11:56:10.217Z,2.27
2023-03-29T11:59:36.453Z,2.35
2023-03-29T12:03:07.777Z,5.80
2023-03-29T12:06:26.794Z,2.57
2023-03-29T12:09:37.701Z,3.60
2023-03-29T12:12:56.487Z,1.77
2023-03-29T12:16:22.021Z,2.72
2023-03-29T12:19:31.275Z,1.52
2023-03-29T12:22:34.081Z,2.85
2023-03-29T12:26:13.981Z,2.67
2023-03-29T12:29:53.781Z,2.23
2023-03-29T12:33:47.615Z,3.20
2023-03-29T12:37:17.632Z,4.65
2023-03-29T12:40:22.986Z,2.23
2023-03-29T12:43:45.837Z,2.55
2023-03-29T12:47:13.921Z,3.53
2023-03-29T12:50:28.377Z,2.60
2023-03-29T12:53:52.560Z,4.47
2023-03-29T12:57:18.352Z,3.03
2023-03-29T13:00:26.077Z,4.10
2023-03-29T13:03:35.530Z,4.03
2023-03-29T13:06:47.012Z,4.30
2023-03-29T13:09:55.453Z,2.95
2023-03-29T13:13:11.496Z,2.67
2023-03-29T13:16:19.475Z,3.17
2023-03-29T13:19:57.156Z,4.70
2023-03-29T13:23:30.341Z,3.40
2023-03-29T13:26:49.765Z,4.45
2023-03-29T13:30:23.260Z,5.13
2023-03-29T13:33:34.597Z,2.78
2023-03-29T13:37:04.723Z,2.10
2023-03-29T13:40:43.250Z,9.82
2023-03-29T13:43:45.769Z,5.97
2023-03-29T13:46:49.986Z,3.40
2023-03-29T13:49:54.957Z,5.72
2023-03-29T13:53:27.942Z,5.47
2023-03-29T13:56:38.602Z,5.18
2023-03-29T14:00:17.905Z,3.63
2023-03-29T14:03:26.296Z,6.40
2023-03-29T14:06:34.372Z,3.03
2023-03-29T14:09:43.935Z,7.27
2023-03-29T14:12:47.086Z,3.13
2023-03-29T14:15:53.014Z,2.92
2023-03-29T14:18:59.765Z,3.53
2023-03-29T14:22:07.559Z,4.20
2023-03-29T14:25:19.318Z,4.93
2023-03-29T14:28:28.112Z,2.80
2023-03-29T14:31:36.345Z,2.67
2023-03-29T14:34:40.192Z,4.50
2023-03-29T14:37:42.845Z,3.63
2023-03-29T14:40:45.672Z,2.20
2023-03-29T14:43:48.270Z,2.60
2023-03-29T14:46:50.826Z,5.13
2023-03-29T14:49:56.133Z,4.53
2023-03-29T14:53:00.685Z,4.80
2023-03-29T14:56:03.946Z,2.60
2023-03-29T14:59:22.779Z,4.03
2023-03-29T15:02:26.982Z,3.50
2023-03-29T15:05:36.347Z,2.42
2023-03-29T15:08:48.199Z,1.60
2023-03-29T15:12:02.260Z,2.77
2023-03-29T15:15:07.743Z,1.98
2023-03-29T15:18:15.987Z,8.38
2023-03-29T15:21:22.152Z,3.07
2023-03-29T15:24:33.058Z,2.97
2023-03-29T15:27:42.386Z,2.53
2023-03-29T15:30:47.768Z,4.20
2023-03-29T15:34:13.555Z,2.20
2023-03-29T15:37:16.203Z,3.28
2023-03-29T15:40:25.426Z,5.88
2023-03-29T15:43:27.930Z,9.90
2023-03-29T15:46:30.285Z,3.30
2023-03-29T15:49:32.767Z,3.67
2023-03-29T15:52:35.371Z,4.27
2023-03-29T15:55:44.655Z,4.43
2023-03-29T15:58:47.522Z,5.20
2023-03-29T16:01:50.714Z,2.95
2023-03-29T16:04:53.534Z,4.82
2023-03-29T16:07:56.000Z,3.22
2023-03-29T16:10:58.393Z,3.28
2023-03-29T16:14:00.878Z,4.43
2023-03-29T16:17:03.997Z,4.93
2023-03-29T16:20:07.556Z,5.47
2023-03-29T16:23:10.052Z,4.77
2023-03-29T16:26:14.080Z,6.03
2023-03-29T16:29:17.490Z,4.30
2023-03-29T16:32:20.105Z,4.35
2023-03-29T16:35:27.873Z,5.00
2023-03-29T16:38:30.760Z,6.75
2023-03-29T16:41:33.689Z,7.80
2023-03-29T16:44:36.285Z,9.40
2023-03-29T16:47:39.545Z,7.53
2023-03-29T16:50:42.020Z,4.25
2023-03-29T16:53:44.557Z,7.23
2023-03-29T16:56:47.248Z,12.65
2023-03-29T16:59:49.733Z,11.45
2023-03-29T17:02:52.811Z,11.15
2023-03-29T17:05:55.494Z,14.63
2023-03-29T17:08:58.979Z,14.50
2023-03-29T17:12:02.015Z,21.00
2023-03-29T17:15:06.425Z,12.33
2023-03-29T17:18:09.339Z,17.83
2023-03-29T17:21:11.915Z,21.50
2023-03-29T17:24:14.487Z,17.97
2023-03-29T17:27:17.053Z,15.85
2023-03-29T17:30:19.830Z,12.82
2023-03-29T17:33:26.219Z,17.77
2023-03-29T17:36:28.940Z,19.77
2023-03-29T17:39:32.143Z,12.60
2023-03-29T17:42:34.542Z,14.25
2023-03-29T17:45:36.868Z,17.63
2023-03-29T17:48:39.279Z,15.90
2023-03-29T17:51:41.845Z,18.23
2023-03-29T17:54:44.746Z,18.47
2023-03-29T17:57:48.983Z,15.18
2023-03-29T18:00:51.799Z,20.75
2023-03-29T18:03:54.824Z,23.80
2023-03-29T18:06:57.780Z,14.73
2023-03-29T18:10:00.411Z,31.88
2023-03-29T18:13:03.105Z,19.17
2023-03-29T18:16:07.626Z,25.67
2023-03-29T18:19:10.800Z,33.03
2023-03-29T18:22:13.547Z,25.10
2023-03-29T18:25:18.278Z,29.93
2023-03-29T18:28:21.466Z,29.88
2023-03-29T18:31:24.202Z,24.80
2023-03-29T18:34:27.842Z,19.50
2023-03-29T18:37:33.790Z,18.08
2023-03-29T18:40:36.559Z,14.25
2023-03-29T18:43:41.271Z,11.82
2023-03-29T18:46:43.906Z,9.00
2023-03-29T18:49:47.294Z,7.65
2023-03-29T18:52:50.305Z,7.15
2023-03-29T18:55:53.033Z,7.13
2023-03-29T18:58:55.482Z,9.73
2023-03-29T19:01:58.230Z,8.13
2023-03-29T19:05:01.570Z,8.15
2023-03-29T19:08:05.799Z,9.88
2023-03-29T19:11:11.463Z,9.98
2023-03-29T19:14:14.479Z,11.48
2023-03-29T19:17:17.517Z,10.63
2023-03-29T19:20:21.187Z,13.98
2023-03-29T19:23:27.131Z,12.63
2023-03-29T19:26:30.655Z,9.40
2023-03-29T19:29:33.241Z,10.30
2023-03-29T19:32:36.031Z,8.98
2023-03-29T19:35:38.841Z,8.13
2023-03-29T19:38:41.723Z,9.18
2023-03-29T19:41:44.624Z,8.55
2023-03-29T19:44:47.491Z,10.00
2023-03-29T19:47:57.227Z,5.67
2023-03-29T19:51:03.561Z,6.00
2023-03-29T19:54:07.099Z,6.63
2023-03-29T19:57:09.683Z,8.80
2023-03-29T20:00:14.188Z,8.05
2023-03-29T20:03:17.891Z,7.22
2023-03-29T20:06:21.568Z,6.40
2023-03-29T20:09:24.191Z,5.68
2023-03-29T20:12:27.916Z,5.72
2023-03-29T20:15:30.653Z,5.53
2023-03-29T20:18:33.384Z,6.67
2023-03-29T20:21:38.409Z,5.85
2023-03-29T20:24:42.249Z,4.82
2023-03-29T20:27:45.376Z,6.27
2023-03-29T20:30:51.178Z,6.38
2023-03-29T20:33:53.702Z,5.32
2023-03-29T20:37:00.760Z,5.25
2023-03-29T20:40:05.468Z,5.78
2023-03-29T20:43:13.336Z,7.15
2023-03-29T20:46:18.368Z,5.88
2023-03-29T20:49:26.653Z,4.73
2023-03-29T20:52:29.085Z,7.10
2023-03-29T20:55:33.394Z,5.80
2023-03-29T20:58:35.867Z,4.77
2023-03-29T21:01:42.316Z,7.03
2023-03-29T21:04:48.605Z,6.97
2023-03-29T21:07:51.093Z,11.65
2023-03-29T21:10:53.464Z,5.75
2023-03-29T21:13:55.957Z,6.97
2023-03-29T21:16:58.752Z,6.10
2023-03-29T21:20:02.585Z,4.83
2023-03-29T21:23:05.127Z,7.47
2023-03-29T21:26:07.901Z,7.18
2023-03-29T21:29:10.922Z,8.47
2023-03-29T21:32:13.374Z,6.32
2023-03-29T21:35:16.045Z,9.65
2023-03-29T21:38:18.591Z,6.60
2023-03-29T21:41:21.967Z,6.45
2023-03-29T21:44:24.505Z,7.03
2023-03-29T21:47:26.931Z,6.13
2023-03-29T21:50:31.987Z,7.47
2023-03-29T21:53:36.419Z,8.00
2023-03-29T21:56:38.988Z,8.73
2023-03-29T21:59:41.462Z,6.20
2023-03-29T22:02:45.896Z,6.22
2023-03-29T22:05:59.880Z,7.20
2023-03-29T22:09:03.208Z,10.70
2023-03-29T22:12:05.824Z,9.02
2023-03-29T22:15:12.035Z,8.25
2023-03-29T22:18:14.681Z,9.20
2023-03-29T22:21:28.489Z,7.83
2023-03-29T22:24:31.061Z,9.55
2023-03-29T22:27:33.452Z,10.18
2023-03-29T22:30:36.509Z,8.50
2023-03-29T22:33:39.737Z,10.05
2023-03-29T22:36:42.090Z,9.15
2023-03-29T22:39:44.524Z,8.45
2023-03-29T22:42:46.997Z,8.70
2023-03-29T22:45:49.393Z,10.50
2023-03-29T22:48:52.437Z,10.40
2023-03-29T22:51:55.087Z,10.97
2023-03-29T22:54:57.712Z,11.35
2023-03-29T22:58:00.112Z,11.40
2023-03-29T23:01:03.267Z,11.17
2023-03-29T23:04:06.193Z,12.43
2023-03-29T23:07:08.617Z,11.68
2023-03-29T23:10:11.655Z,12.73
2023-03-29T23:13:20.020Z,10.77
2023-03-29T23:16:22.517Z,12.80
2023-03-29T23:19:25.306Z,11.90
2023-03-29T23:22:28.678Z,11.37
2023-03-29T23:25:31.469Z,15.10
2023-03-29T23:28:34.901Z,10.13
2023-03-29T23:31:37.891Z,11.10
2023-03-29T23:34:40.522Z,11.35
2023-03-29T23:37:43.520Z,10.98
2023-03-29T23:41:00.278Z,11.75
2023-03-29T23:44:03.708Z,9.23
2023-03-29T23:47:07.102Z,11.15
2023-03-29T23:50:13.229Z,10.55
2023-03-29T23:53:15.883Z,10.73
2023-03-29T23:56:18.309Z,9.70
2023-03-29T23:59:22.733Z,8.90
